sensor_id;sensor_type;location;lat;lon;timestamp;P1;durP1;ratioP1;P2;durP2;ratioP2
43710;SDS011;29309;42.682;23.372;2022-10-26T00:00:38;14.95;;;4.70;;
43710;SDS011;29309;42.682;23.372;2022-10-26T00:03:04;8.32;;;4.47;;
43710;SDS011;29309;42.682;23.372;2022-10-26T00:05:31;13.18;;;4.82;;
43710;SDS011;29309;42.682;23.372;2022-10-26T00:07:58;12.30;;;4.32;;
43710;SDS011;29309;42.682;23.372;2022-10-26T00:10:23;13.02;;;4.20;;
43710;SDS011;29309;42.682;23.372;2022-10-26T00:12:52;9.93;;;4.47;;
43710;SDS011;29309;42.682;23.372;2022-10-26T00:15:18;11.05;;;4.22;;
43710;SDS011;29309;42.682;23.372;2022-10-26T00:17:45;7.72;;;4.45;;
43710;SDS011;29309;42.682;23.372;2022-10-26T00:20:14;10.23;;;4.63;;
43710;SDS011;29309;42.682;23.372;2022-10-26T00:22:43;10.30;;;4.40;;
43710;SDS011;29309;42.682;23.372;2022-10-26T00:25:09;13.90;;;4.60;;
43710;SDS011;29309;42.682;23.372;2022-10-26T00:27:35;6.30;;;4.28;;
43710;SDS011;29309;42.682;23.372;2022-10-26T00:30:01;10.80;;;4.90;;
43710;SDS011;29309;42.682;23.372;2022-10-26T00:32:28;16.85;;;5.00;;
43710;SDS011;29309;42.682;23.372;2022-10-26T00:34:54;10.20;;;4.47;;
43710;SDS011;29309;42.682;23.372;2022-10-26T00:37:19;9.80;;;4.30;;
43710;SDS011;29309;42.682;23.372;2022-10-26T00:39:45;12.43;;;4.90;;
43710;SDS011;29309;42.682;23.372;2022-10-26T00:42:18;11.90;;;4.20;;
43710;SDS011;29309;42.682;23.372;2022-10-26T00:47:14;10.10;;;4.68;;
43710;SDS011;29309;42.682;23.372;2022-10-26T00:49:50;14.98;;;4.85;;
43710;SDS011;29309;42.682;23.372;2022-10-26T00:52:19;16.98;;;4.40;;
43710;SDS011;29309;42.682;23.372;2022-10-26T00:54:46;8.32;;;4.85;;
43710;SDS011;29309;42.682;23.372;2022-10-26T00:57:13;15.75;;;5.55;;
43710;SDS011;29309;42.682;23.372;2022-10-26T00:59:40;14.05;;;5.43;;
43710;SDS011;29309;42.682;23.372;2022-10-26T01:02:08;8.88;;;4.70;;
43710;SDS011;29309;42.682;23.372;2022-10-26T01:04:34;9.68;;;4.93;;
43710;SDS011;29309;42.682;23.372;2022-10-26T01:07:00;12.80;;;4.68;;
43710;SDS011;29309;42.682;23.372;2022-10-26T01:09:28;22.70;;;5.43;;
43710;SDS011;29309;42.682;23.372;2022-10-26T01:11:56;9.23;;;5.35;;
43710;SDS011;29309;42.682;23.372;2022-10-26T01:14:21;11.32;;;4.25;;
43710;SDS011;29309;42.682;23.372;2022-10-26T01:28:04;13.38;;;4.22;;
43710;SDS011;29309;42.682;23.372;2022-10-26T01:30:39;9.27;;;4.78;;
43710;SDS011;29309;42.682;23.372;2022-10-26T01:36:12;10.00;;;4.43;;
43710;SDS011;29309;42.682;23.372;2022-10-26T01:41:33;11.45;;;4.13;;
43710;SDS011;29309;42.682;23.372;2022-10-26T01:44:13;13.13;;;5.05;;
43710;SDS011;29309;42.682;23.372;2022-10-26T01:46:45;14.02;;;5.50;;
43710;SDS011;29309;42.682;23.372;2022-10-26T01:49:14;17.42;;;5.90;;
43710;SDS011;29309;42.682;23.372;2022-10-26T01:51:44;11.70;;;5.03;;
43710;SDS011;29309;42.682;23.372;2022-10-26T01:54:15;8.80;;;4.90;;
43710;SDS011;29309;42.682;23.372;2022-10-26T01:56:43;10.57;;;4.85;;
43710;SDS011;29309;42.682;23.372;2022-10-26T02:07:48;13.73;;;4.88;;
43710;SDS011;29309;42.682;23.372;2022-10-26T02:15:53;18.60;;;6.93;;
43710;SDS011;29309;42.682;23.372;2022-10-26T02:21:10;15.88;;;8.15;;
43710;SDS011;29309;42.682;23.372;2022-10-26T02:23:41;16.13;;;7.45;;
43710;SDS011;29309;42.682;23.372;2022-10-26T02:26:12;20.40;;;7.70;;
43710;SDS011;29309;42.682;23.372;2022-10-26T02:28:43;12.85;;;6.60;;
43710;SDS011;29309;42.682;23.372;2022-10-26T02:31:13;19.60;;;8.43;;
43710;SDS011;29309;42.682;23.372;2022-10-26T02:33:43;19.83;;;7.80;;
43710;SDS011;29309;42.682;23.372;2022-10-26T02:36:13;35.85;;;8.25;;
43710;SDS011;29309;42.682;23.372;2022-10-26T02:38:44;16.75;;;8.38;;
43710;SDS011;29309;42.682;23.372;2022-10-26T02:41:11;22.08;;;8.10;;
43710;SDS011;29309;42.682;23.372;2022-10-26T02:43:44;20.42;;;8.02;;
43710;SDS011;29309;42.682;23.372;2022-10-26T02:46:33;24.38;;;7.95;;
43710;SDS011;29309;42.682;23.372;2022-10-26T02:48:59;17.08;;;7.97;;
43710;SDS011;29309;42.682;23.372;2022-10-26T02:51:35;13.63;;;7.45;;
43710;SDS011;29309;42.682;23.372;2022-10-26T02:54:11;26.50;;;8.20;;
43710;SDS011;29309;42.682;23.372;2022-10-26T02:56:46;17.48;;;8.13;;
43710;SDS011;29309;42.682;23.372;2022-10-26T02:59:18;19.38;;;7.85;;
43710;SDS011;29309;42.682;23.372;2022-10-26T03:01:49;18.48;;;9.85;;
43710;SDS011;29309;42.682;23.372;2022-10-26T03:04:16;21.85;;;7.63;;
43710;SDS011;29309;42.682;23.372;2022-10-26T03:06:50;11.60;;;7.45;;
43710;SDS011;29309;42.682;23.372;2022-10-26T03:09:21;24.30;;;8.48;;
43710;SDS011;29309;42.682;23.372;2022-10-26T03:11:46;21.25;;;7.97;;
43710;SDS011;29309;42.682;23.372;2022-10-26T03:14:12;19.70;;;8.02;;
43710;SDS011;29309;42.682;23.372;2022-10-26T03:16:41;17.83;;;8.02;;
43710;SDS011;29309;42.682;23.372;2022-10-26T03:19:07;20.17;;;8.27;;
43710;SDS011;29309;42.682;23.372;2022-10-26T03:21:45;19.23;;;7.50;;
43710;SDS011;29309;42.682;23.372;2022-10-26T03:24:14;21.83;;;7.20;;
43710;SDS011;29309;42.682;23.372;2022-10-26T03:26:39;21.40;;;7.25;;
43710;SDS011;29309;42.682;23.372;2022-10-26T03:29:05;12.20;;;6.53;;
43710;SDS011;29309;42.682;23.372;2022-10-26T03:31:30;18.00;;;6.75;;
43710;SDS011;29309;42.682;23.372;2022-10-26T03:33:56;12.50;;;6.35;;
43710;SDS011;29309;42.682;23.372;2022-10-26T03:36:21;12.43;;;6.18;;
43710;SDS011;29309;42.682;23.372;2022-10-26T03:38:47;17.00;;;6.75;;
43710;SDS011;29309;42.682;23.372;2022-10-26T03:41:12;14.23;;;6.63;;
43710;SDS011;29309;42.682;23.372;2022-10-26T03:43:37;11.68;;;6.57;;
43710;SDS011;29309;42.682;23.372;2022-10-26T03:46:03;12.02;;;6.30;;
43710;SDS011;29309;42.682;23.372;2022-10-26T03:48:29;11.52;;;6.75;;
43710;SDS011;29309;42.682;23.372;2022-10-26T03:50:57;12.55;;;6.80;;
43710;SDS011;29309;42.682;23.372;2022-10-26T03:53:32;13.88;;;6.78;;
43710;SDS011;29309;42.682;23.372;2022-10-26T03:56:01;10.63;;;5.90;;
43710;SDS011;29309;42.682;23.372;2022-10-26T03:58:27;22.02;;;7.05;;
43710;SDS011;29309;42.682;23.372;2022-10-26T04:00:53;13.05;;;6.70;;
43710;SDS011;29309;42.682;23.372;2022-10-26T04:03:19;11.73;;;6.60;;
43710;SDS011;29309;42.682;23.372;2022-10-26T04:05:45;12.82;;;5.53;;
43710;SDS011;29309;42.682;23.372;2022-10-26T04:08:11;13.35;;;5.50;;
43710;SDS011;29309;42.682;23.372;2022-10-26T04:10:37;11.90;;;5.05;;
43710;SDS011;29309;42.682;23.372;2022-10-26T04:13:02;21.65;;;9.85;;
43710;SDS011;29309;42.682;23.372;2022-10-26T04:15:28;22.63;;;9.45;;
43710;SDS011;29309;42.682;23.372;2022-10-26T04:17:56;19.50;;;9.32;;
43710;SDS011;29309;42.682;23.372;2022-10-26T04:20:23;28.65;;;9.30;;
43710;SDS011;29309;42.682;23.372;2022-10-26T04:23:00;27.50;;;9.40;;
43710;SDS011;29309;42.682;23.372;2022-10-26T04:25:27;15.95;;;8.75;;
43710;SDS011;29309;42.682;23.372;2022-10-26T04:27:53;23.65;;;9.60;;
43710;SDS011;29309;42.682;23.372;2022-10-26T04:30:19;22.80;;;8.68;;
43710;SDS011;29309;42.682;23.372;2022-10-26T04:32:45;23.23;;;9.88;;
43710;SDS011;29309;42.682;23.372;2022-10-26T04:35:13;14.75;;;8.43;;
43710;SDS011;29309;42.682;23.372;2022-10-26T04:37:42;24.63;;;10.68;;
43710;SDS011;29309;42.682;23.372;2022-10-26T04:40:08;23.90;;;9.82;;
43710;SDS011;29309;42.682;23.372;2022-10-26T04:42:43;39.53;;;10.65;;
43710;SDS011;29309;42.682;23.372;2022-10-26T04:45:11;21.25;;;9.52;;
43710;SDS011;29309;42.682;23.372;2022-10-26T04:47:37;22.23;;;10.13;;
43710;SDS011;29309;42.682;23.372;2022-10-26T04:50:03;27.83;;;9.55;;
43710;SDS011;29309;42.682;23.372;2022-10-26T04:52:30;17.75;;;9.05;;
43710;SDS011;29309;42.682;23.372;2022-10-26T04:54:55;23.50;;;9.80;;
43710;SDS011;29309;42.682;23.372;2022-10-26T04:57:20;20.58;;;9.23;;
43710;SDS011;29309;42.682;23.372;2022-10-26T04:59:46;23.17;;;8.70;;
43710;SDS011;29309;42.682;23.372;2022-10-26T05:02:11;25.38;;;9.60;;
43710;SDS011;29309;42.682;23.372;2022-10-26T05:04:37;21.58;;;9.75;;
43710;SDS011;29309;42.682;23.372;2022-10-26T05:07:02;22.05;;;9.70;;
43710;SDS011;29309;42.682;23.372;2022-10-26T05:09:28;19.10;;;9.20;;
43710;SDS011;29309;42.682;23.372;2022-10-26T05:11:53;36.28;;;12.18;;
43710;SDS011;29309;42.682;23.372;2022-10-26T05:14:19;22.08;;;9.30;;
43710;SDS011;29309;42.682;23.372;2022-10-26T05:16:44;24.20;;;9.75;;
43710;SDS011;29309;42.682;23.372;2022-10-26T05:19:10;26.60;;;10.05;;
43710;SDS011;29309;42.682;23.372;2022-10-26T05:21:35;24.67;;;9.70;;
43710;SDS011;29309;42.682;23.372;2022-10-26T05:24:01;27.55;;;11.25;;
43710;SDS011;29309;42.682;23.372;2022-10-26T05:26:26;21.52;;;10.90;;
43710;SDS011;29309;42.682;23.372;2022-10-26T05:28:52;22.17;;;11.95;;
43710;SDS011;29309;42.682;23.372;2022-10-26T05:31:18;37.25;;;11.38;;
43710;SDS011;29309;42.682;23.372;2022-10-26T05:33:47;26.70;;;9.77;;
43710;SDS011;29309;42.682;23.372;2022-10-26T05:36:13;17.38;;;10.75;;
43710;SDS011;29309;42.682;23.372;2022-10-26T05:38:38;29.90;;;12.48;;
43710;SDS011;29309;42.682;23.372;2022-10-26T05:41:04;27.60;;;12.43;;
43710;SDS011;29309;42.682;23.372;2022-10-26T05:43:29;32.63;;;14.02;;
43710;SDS011;29309;42.682;23.372;2022-10-26T05:45:55;22.60;;;11.95;;
43710;SDS011;29309;42.682;23.372;2022-10-26T05:48:20;42.42;;;12.23;;
43710;SDS011;29309;42.682;23.372;2022-10-26T05:50:46;23.15;;;11.43;;
43710;SDS011;29309;42.682;23.372;2022-10-26T05:53:12;26.42;;;11.82;;
43710;SDS011;29309;42.682;23.372;2022-10-26T05:55:37;26.20;;;12.23;;
43710;SDS011;29309;42.682;23.372;2022-10-26T05:58:03;25.27;;;11.30;;
43710;SDS011;29309;42.682;23.372;2022-10-26T06:00:33;24.52;;;12.40;;
43710;SDS011;29309;42.682;23.372;2022-10-26T06:03:05;26.95;;;12.27;;
43710;SDS011;29309;42.682;23.372;2022-10-26T06:05:52;23.27;;;10.95;;
43710;SDS011;29309;42.682;23.372;2022-10-26T06:08:19;35.20;;;11.50;;
43710;SDS011;29309;42.682;23.372;2022-10-26T06:10:47;32.05;;;12.80;;
43710;SDS011;29309;42.682;23.372;2022-10-26T06:13:13;33.97;;;12.63;;
43710;SDS011;29309;42.682;23.372;2022-10-26T06:20:58;24.55;;;10.45;;
43710;SDS011;29309;42.682;23.372;2022-10-26T06:29:09;23.95;;;11.70;;
43710;SDS011;29309;42.682;23.372;2022-10-26T06:31:43;27.65;;;11.05;;
43710;SDS011;29309;42.682;23.372;2022-10-26T06:34:10;24.50;;;9.82;;
43710;SDS011;29309;42.682;23.372;2022-10-26T06:36:47;26.35;;;11.20;;
43710;SDS011;29309;42.682;23.372;2022-10-26T06:39:21;29.50;;;11.57;;
43710;SDS011;29309;42.682;23.372;2022-10-26T06:41:49;31.75;;;10.45;;
43710;SDS011;29309;42.682;23.372;2022-10-26T06:44:22;22.10;;;9.93;;
43710;SDS011;29309;42.682;23.372;2022-10-26T06:47:25;26.55;;;10.57;;
43710;SDS011;29309;42.682;23.372;2022-10-26T06:52:14;19.27;;;10.43;;
43710;SDS011;29309;42.682;23.372;2022-10-26T06:54:49;27.30;;;10.93;;
43710;SDS011;29309;42.682;23.372;2022-10-26T06:57:16;23.15;;;10.60;;
43710;SDS011;29309;42.682;23.372;2022-10-26T06:59:56;22.20;;;10.73;;
43710;SDS011;29309;42.682;23.372;2022-10-26T07:02:27;23.67;;;12.43;;
43710;SDS011;29309;42.682;23.372;2022-10-26T07:04:53;30.42;;;13.02;;
43710;SDS011;29309;42.682;23.372;2022-10-26T07:07:19;28.08;;;12.27;;
43710;SDS011;29309;42.682;23.372;2022-10-26T07:09:46;26.15;;;12.13;;
43710;SDS011;29309;42.682;23.372;2022-10-26T07:12:13;27.52;;;11.75;;
43710;SDS011;29309;42.682;23.372;2022-10-26T07:14:38;25.17;;;12.30;;
43710;SDS011;29309;42.682;23.372;2022-10-26T07:17:10;26.33;;;10.45;;
43710;SDS011;29309;42.682;23.372;2022-10-26T07:19:35;21.25;;;11.38;;
43710;SDS011;29309;42.682;23.372;2022-10-26T07:22:01;23.85;;;10.60;;
43710;SDS011;29309;42.682;23.372;2022-10-26T07:24:28;30.27;;;11.25;;
43710;SDS011;29309;42.682;23.372;2022-10-26T07:26:54;25.40;;;12.52;;
43710;SDS011;29309;42.682;23.372;2022-10-26T07:29:21;29.73;;;11.10;;
43710;SDS011;29309;42.682;23.372;2022-10-26T07:31:47;27.90;;;11.10;;
43710;SDS011;29309;42.682;23.372;2022-10-26T07:34:13;35.70;;;14.52;;
43710;SDS011;29309;42.682;23.372;2022-10-26T07:36:38;19.05;;;10.48;;
43710;SDS011;29309;42.682;23.372;2022-10-26T07:39:04;16.70;;;8.10;;
43710;SDS011;29309;42.682;23.372;2022-10-26T07:41:30;21.38;;;7.75;;
43710;SDS011;29309;42.682;23.372;2022-10-26T07:43:56;17.02;;;5.78;;
43710;SDS011;29309;42.682;23.372;2022-10-26T07:46:22;13.85;;;5.28;;
43710;SDS011;29309;42.682;23.372;2022-10-26T07:48:48;9.43;;;5.50;;
43710;SDS011;29309;42.682;23.372;2022-10-26T07:51:14;9.68;;;5.30;;
43710;SDS011;29309;42.682;23.372;2022-10-26T07:53:39;25.15;;;5.22;;
43710;SDS011;29309;42.682;23.372;2022-10-26T07:56:05;12.75;;;5.38;;
43710;SDS011;29309;42.682;23.372;2022-10-26T07:58:31;9.75;;;4.40;;
43710;SDS011;29309;42.682;23.372;2022-10-26T08:00:57;9.05;;;4.85;;
43710;SDS011;29309;42.682;23.372;2022-10-26T08:03:28;7.43;;;4.82;;
43710;SDS011;29309;42.682;23.372;2022-10-26T08:05:54;12.75;;;4.78;;
43710;SDS011;29309;42.682;23.372;2022-10-26T08:08:20;10.07;;;5.25;;
43710;SDS011;29309;42.682;23.372;2022-10-26T08:10:49;59.88;;;8.27;;
43710;SDS011;29309;42.682;23.372;2022-10-26T08:13:16;37.15;;;6.53;;
43710;SDS011;29309;42.682;23.372;2022-10-26T08:15:42;13.27;;;4.95;;
43710;SDS011;29309;42.682;23.372;2022-10-26T08:18:07;14.02;;;5.40;;
43710;SDS011;29309;42.682;23.372;2022-10-26T08:20:33;10.23;;;5.28;;
43710;SDS011;29309;42.682;23.372;2022-10-26T08:22:59;9.70;;;5.50;;
43710;SDS011;29309;42.682;23.372;2022-10-26T08:25:25;10.20;;;5.10;;
43710;SDS011;29309;42.682;23.372;2022-10-26T08:27:51;9.05;;;4.75;;
43710;SDS011;29309;42.682;23.372;2022-10-26T08:30:18;9.07;;;5.32;;
43710;SDS011;29309;42.682;23.372;2022-10-26T08:32:44;12.73;;;4.53;;
43710;SDS011;29309;42.682;23.372;2022-10-26T08:35:09;9.00;;;4.13;;
43710;SDS011;29309;42.682;23.372;2022-10-26T08:37:35;12.52;;;4.18;;
43710;SDS011;29309;42.682;23.372;2022-10-26T08:40:03;9.20;;;4.22;;
43710;SDS011;29309;42.682;23.372;2022-10-26T08:42:48;15.20;;;5.65;;
43710;SDS011;29309;42.682;23.372;2022-10-26T08:45:21;12.32;;;4.47;;
43710;SDS011;29309;42.682;23.372;2022-10-26T08:47:52;14.90;;;4.65;;
43710;SDS011;29309;42.682;23.372;2022-10-26T08:50:36;11.13;;;3.95;;
43710;SDS011;29309;42.682;23.372;2022-10-26T08:53:16;8.45;;;3.85;;
43710;SDS011;29309;42.682;23.372;2022-10-26T08:58:46;9.48;;;3.78;;
43710;SDS011;29309;42.682;23.372;2022-10-26T09:01:17;8.90;;;3.87;;
43710;SDS011;29309;42.682;23.372;2022-10-26T09:03:45;7.55;;;4.05;;
43710;SDS011;29309;42.682;23.372;2022-10-26T09:22:20;10.73;;;5.07;;
43710;SDS011;29309;42.682;23.372;2022-10-26T09:24:55;13.82;;;4.88;;
43710;SDS011;29309;42.682;23.372;2022-10-26T09:27:26;12.30;;;6.88;;
43710;SDS011;29309;42.682;23.372;2022-10-26T09:29:57;11.45;;;4.57;;
43710;SDS011;29309;42.682;23.372;2022-10-26T09:32:35;15.65;;;4.97;;
43710;SDS011;29309;42.682;23.372;2022-10-26T09:35:09;6.72;;;3.80;;
43710;SDS011;29309;42.682;23.372;2022-10-26T09:37:45;6.35;;;4.13;;
43710;SDS011;29309;42.682;23.372;2022-10-26T09:45:27;9.32;;;4.40;;
43710;SDS011;29309;42.682;23.372;2022-10-26T09:47:58;10.70;;;5.75;;
43710;SDS011;29309;42.682;23.372;2022-10-26T09:50:34;8.20;;;3.97;;
43710;SDS011;29309;42.682;23.372;2022-10-26T09:53:01;8.52;;;2.70;;
43710;SDS011;29309;42.682;23.372;2022-10-26T09:55:29;5.65;;;2.45;;
43710;SDS011;29309;42.682;23.372;2022-10-26T09:57:57;6.85;;;2.83;;
43710;SDS011;29309;42.682;23.372;2022-10-26T10:00:26;8.73;;;3.50;;
43710;SDS011;29309;42.682;23.372;2022-10-26T10:02:53;7.80;;;3.22;;
43710;SDS011;29309;42.682;23.372;2022-10-26T10:10:38;20.15;;;3.10;;
43710;SDS011;29309;42.682;23.372;2022-10-26T10:13:22;8.18;;;2.33;;
43710;SDS011;29309;42.682;23.372;2022-10-26T10:15:51;5.40;;;2.53;;
43710;SDS011;29309;42.682;23.372;2022-10-26T10:18:43;3.08;;;1.55;;
43710;SDS011;29309;42.682;23.372;2022-10-26T10:24:20;4.13;;;2.08;;
43710;SDS011;29309;42.682;23.372;2022-10-26T10:29:29;6.47;;;2.38;;
43710;SDS011;29309;42.682;23.372;2022-10-26T10:34:29;10.80;;;4.80;;
43710;SDS011;29309;42.682;23.372;2022-10-26T10:36:56;10.95;;;2.95;;
43710;SDS011;29309;42.682;23.372;2022-10-26T10:39:31;13.73;;;3.33;;
43710;SDS011;29309;42.682;23.372;2022-10-26T10:42:22;12.98;;;2.50;;
43710;SDS011;29309;42.682;23.372;2022-10-26T10:44:52;3.90;;;1.67;;
43710;SDS011;29309;42.682;23.372;2022-10-26T10:47:23;6.32;;;2.03;;
43710;SDS011;29309;42.682;23.372;2022-10-26T10:49:59;6.22;;;2.35;;
43710;SDS011;29309;42.682;23.372;2022-10-26T10:52:30;8.63;;;2.45;;
43710;SDS011;29309;42.682;23.372;2022-10-26T10:55:05;3.55;;;2.13;;
43710;SDS011;29309;42.682;23.372;2022-10-26T10:57:43;5.30;;;3.03;;
43710;SDS011;29309;42.682;23.372;2022-10-26T11:00:22;7.93;;;2.67;;
43710;SDS011;29309;42.682;23.372;2022-10-26T11:11:03;7.85;;;3.28;;
43710;SDS011;29309;42.682;23.372;2022-10-26T11:16:22;10.38;;;3.42;;
43710;SDS011;29309;42.682;23.372;2022-10-26T11:21:30;8.93;;;4.38;;
43710;SDS011;29309;42.682;23.372;2022-10-26T11:24:19;3.90;;;1.87;;
43710;SDS011;29309;42.682;23.372;2022-10-26T11:26:58;4.87;;;1.50;;
43710;SDS011;29309;42.682;23.372;2022-10-26T11:30:05;5.30;;;1.73;;
43710;SDS011;29309;42.682;23.372;2022-10-26T11:35:21;5.55;;;2.80;;
43710;SDS011;29309;42.682;23.372;2022-10-26T11:37:55;6.07;;;1.88;;
43710;SDS011;29309;42.682;23.372;2022-10-26T11:40:27;4.47;;;2.28;;
43710;SDS011;29309;42.682;23.372;2022-10-26T11:45:44;3.83;;;1.98;;
43710;SDS011;29309;42.682;23.372;2022-10-26T11:48:30;2.70;;;1.55;;
43710;SDS011;29309;42.682;23.372;2022-10-26T11:51:02;9.38;;;1.63;;
43710;SDS011;29309;42.682;23.372;2022-10-26T11:53:30;2.90;;;1.55;;
43710;SDS011;29309;42.682;23.372;2022-10-26T11:56:02;13.32;;;1.90;;
43710;SDS011;29309;42.682;23.372;2022-10-26T11:58:34;5.38;;;1.25;;
43710;SDS011;29309;42.682;23.372;2022-10-26T12:01:08;7.72;;;2.03;;
43710;SDS011;29309;42.682;23.372;2022-10-26T12:08:47;3.58;;;1.10;;
43710;SDS011;29309;42.682;23.372;2022-10-26T12:14:00;3.10;;;1.10;;
43710;SDS011;29309;42.682;23.372;2022-10-26T12:16:43;3.55;;;1.40;;
43710;SDS011;29309;42.682;23.372;2022-10-26T12:19:28;6.65;;;3.25;;
43710;SDS011;29309;42.682;23.372;2022-10-26T12:22:01;4.93;;;1.25;;
43710;SDS011;29309;42.682;23.372;2022-10-26T12:24:28;2.55;;;1.10;;
43710;SDS011;29309;42.682;23.372;2022-10-26T12:27:02;3.25;;;1.33;;
43710;SDS011;29309;42.682;23.372;2022-10-26T12:31:56;2.83;;;1.10;;
43710;SDS011;29309;42.682;23.372;2022-10-26T12:37:18;6.07;;;1.10;;
43710;SDS011;29309;42.682;23.372;2022-10-26T12:40:02;1.38;;;0.98;;
43710;SDS011;29309;42.682;23.372;2022-10-26T12:43:42;2.83;;;0.70;;
43710;SDS011;29309;42.682;23.372;2022-10-26T12:48:59;2.20;;;1.25;;
43710;SDS011;29309;42.682;23.372;2022-10-26T12:54:03;1.60;;;0.63;;
43710;SDS011;29309;42.682;23.372;2022-10-26T13:04:24;6.22;;;0.82;;
43710;SDS011;29309;42.682;23.372;2022-10-26T13:10:32;1.42;;;0.85;;
43710;SDS011;29309;42.682;23.372;2022-10-26T13:18:14;1.92;;;0.70;;
43710;SDS011;29309;42.682;23.372;2022-10-26T13:20:52;3.92;;;1.02;;
43710;SDS011;29309;42.682;23.372;2022-10-26T13:23:28;2.42;;;1.05;;
43710;SDS011;29309;42.682;23.372;2022-10-26T13:26:12;5.40;;;1.58;;
43710;SDS011;29309;42.682;23.372;2022-10-26T13:39:46;5.00;;;2.70;;
43710;SDS011;29309;42.682;23.372;2022-10-26T13:42:19;5.30;;;1.83;;
43710;SDS011;29309;42.682;23.372;2022-10-26T13:45:05;8.57;;;1.85;;
43710;SDS011;29309;42.682;23.372;2022-10-26T13:50:46;5.07;;;3.35;;
43710;SDS011;29309;42.682;23.372;2022-10-26T13:58:33;2.97;;;1.33;;
43710;SDS011;29309;42.682;23.372;2022-10-26T14:03:37;3.22;;;0.93;;
43710;SDS011;29309;42.682;23.372;2022-10-26T14:06:09;3.83;;;0.90;;
43710;SDS011;29309;42.682;23.372;2022-10-26T14:08:45;5.07;;;1.30;;
43710;SDS011;29309;42.682;23.372;2022-10-26T14:11:15;1.75;;;0.98;;
43710;SDS011;29309;42.682;23.372;2022-10-26T14:13:44;4.05;;;1.65;;
43710;SDS011;29309;42.682;23.372;2022-10-26T14:16:13;5.07;;;2.10;;
43710;SDS011;29309;42.682;23.372;2022-10-26T14:18:43;4.07;;;1.90;;
43710;SDS011;29309;42.682;23.372;2022-10-26T14:21:13;7.50;;;2.35;;
43710;SDS011;29309;42.682;23.372;2022-10-26T14:23:48;6.55;;;2.15;;
43710;SDS011;29309;42.682;23.372;2022-10-26T14:26:21;6.37;;;2.23;;
43710;SDS011;29309;42.682;23.372;2022-10-26T14:28:51;10.25;;;3.38;;
43710;SDS011;29309;42.682;23.372;2022-10-26T14:31:23;4.43;;;1.15;;
43710;SDS011;29309;42.682;23.372;2022-10-26T14:33:50;6.55;;;1.20;;
43710;SDS011;29309;42.682;23.372;2022-10-26T14:36:16;5.57;;;1.20;;
43710;SDS011;29309;42.682;23.372;2022-10-26T14:38:46;2.85;;;0.88;;
43710;SDS011;29309;42.682;23.372;2022-10-26T14:41:16;3.72;;;1.00;;
43710;SDS011;29309;42.682;23.372;2022-10-26T14:43:43;5.22;;;1.88;;
43710;SDS011;29309;42.682;23.372;2022-10-26T14:46:16;10.82;;;0.93;;
43710;SDS011;29309;42.682;23.372;2022-10-26T14:51:45;4.85;;;1.20;;
43710;SDS011;29309;42.682;23.372;2022-10-26T14:54:18;4.25;;;1.33;;
43710;SDS011;29309;42.682;23.372;2022-10-26T14:56:45;3.47;;;1.20;;
43710;SDS011;29309;42.682;23.372;2022-10-26T14:59:18;3.67;;;1.30;;
43710;SDS011;29309;42.682;23.372;2022-10-26T15:04:35;4.00;;;1.80;;
43710;SDS011;29309;42.682;23.372;2022-10-26T15:07:13;5.50;;;1.65;;
43710;SDS011;29309;42.682;23.372;2022-10-26T15:09:41;2.28;;;1.15;;
43710;SDS011;29309;42.682;23.372;2022-10-26T15:12:16;12.23;;;1.65;;
43710;SDS011;29309;42.682;23.372;2022-10-26T15:14:55;6.95;;;1.63;;
43710;SDS011;29309;42.682;23.372;2022-10-26T15:17:42;4.55;;;1.60;;
43710;SDS011;29309;42.682;23.372;2022-10-26T15:20:17;8.55;;;2.58;;
43710;SDS011;29309;42.682;23.372;2022-10-26T15:22:51;7.53;;;2.20;;
43710;SDS011;29309;42.682;23.372;2022-10-26T15:25:19;8.20;;;2.22;;
43710;SDS011;29309;42.682;23.372;2022-10-26T15:27:48;8.05;;;1.77;;
43710;SDS011;29309;42.682;23.372;2022-10-26T15:32:46;15.23;;;5.43;;
43710;SDS011;29309;42.682;23.372;2022-10-26T15:35:31;13.75;;;3.55;;
43710;SDS011;29309;42.682;23.372;2022-10-26T15:37:57;8.65;;;1.42;;
43710;SDS011;29309;42.682;23.372;2022-10-26T15:40:24;8.95;;;1.92;;
43710;SDS011;29309;42.682;23.372;2022-10-26T15:42:51;3.50;;;1.50;;
43710;SDS011;29309;42.682;23.372;2022-10-26T15:45:31;10.05;;;1.70;;
43710;SDS011;29309;42.682;23.372;2022-10-26T15:48:45;12.93;;;2.38;;
43710;SDS011;29309;42.682;23.372;2022-10-26T15:51:05;7.88;;;2.60;;
43710;SDS011;29309;42.682;23.372;2022-10-26T15:53:31;11.30;;;3.20;;
43710;SDS011;29309;42.682;23.372;2022-10-26T15:55:57;16.42;;;3.17;;
43710;SDS011;29309;42.682;23.372;2022-10-26T15:58:30;11.05;;;2.25;;
43710;SDS011;29309;42.682;23.372;2022-10-26T16:00:55;2.97;;;2.13;;
43710;SDS011;29309;42.682;23.372;2022-10-26T16:03:21;15.73;;;2.78;;
43710;SDS011;29309;42.682;23.372;2022-10-26T16:05:58;5.93;;;2.03;;
43710;SDS011;29309;42.682;23.372;2022-10-26T16:08:26;7.22;;;2.50;;
43710;SDS011;29309;42.682;23.372;2022-10-26T16:10:53;8.30;;;2.33;;
43710;SDS011;29309;42.682;23.372;2022-10-26T16:13:19;7.18;;;2.17;;
43710;SDS011;29309;42.682;23.372;2022-10-26T16:15:44;7.25;;;3.42;;
43710;SDS011;29309;42.682;23.372;2022-10-26T16:18:10;8.98;;;4.57;;
43710;SDS011;29309;42.682;23.372;2022-10-26T16:20:36;9.05;;;3.85;;
43710;SDS011;29309;42.682;23.372;2022-10-26T16:23:01;13.10;;;4.18;;
43710;SDS011;29309;42.682;23.372;2022-10-26T16:25:32;10.43;;;4.32;;
43710;SDS011;29309;42.682;23.372;2022-10-26T16:27:59;9.48;;;4.13;;
43710;SDS011;29309;42.682;23.372;2022-10-26T16:30:25;7.00;;;3.78;;
43710;SDS011;29309;42.682;23.372;2022-10-26T16:32:54;19.50;;;4.65;;
43710;SDS011;29309;42.682;23.372;2022-10-26T16:35:19;7.70;;;2.97;;
43710;SDS011;29309;42.682;23.372;2022-10-26T16:37:44;9.68;;;3.20;;
43710;SDS011;29309;42.682;23.372;2022-10-26T16:40:10;9.07;;;3.20;;
43710;SDS011;29309;42.682;23.372;2022-10-26T16:42:36;6.07;;;2.65;;
43710;SDS011;29309;42.682;23.372;2022-10-26T16:45:02;9.65;;;3.00;;
43710;SDS011;29309;42.682;23.372;2022-10-26T16:47:28;6.80;;;2.75;;
43710;SDS011;29309;42.682;23.372;2022-10-26T16:49:56;7.07;;;2.80;;
43710;SDS011;29309;42.682;23.372;2022-10-26T16:52:21;10.65;;;3.05;;
43710;SDS011;29309;42.682;23.372;2022-10-26T16:54:47;6.47;;;3.13;;
43710;SDS011;29309;42.682;23.372;2022-10-26T16:57:12;5.57;;;3.10;;
43710;SDS011;29309;42.682;23.372;2022-10-26T16:59:38;9.85;;;3.60;;
43710;SDS011;29309;42.682;23.372;2022-10-26T17:02:03;6.53;;;3.65;;
43710;SDS011;29309;42.682;23.372;2022-10-26T17:04:29;7.07;;;3.78;;
43710;SDS011;29309;42.682;23.372;2022-10-26T17:06:54;8.77;;;3.75;;
43710;SDS011;29309;42.682;23.372;2022-10-26T17:09:19;13.57;;;3.55;;
43710;SDS011;29309;42.682;23.372;2022-10-26T17:11:45;7.10;;;2.85;;
43710;SDS011;29309;42.682;23.372;2022-10-26T17:14:10;14.13;;;3.25;;
43710;SDS011;29309;42.682;23.372;2022-10-26T17:16:36;6.85;;;3.30;;
43710;SDS011;29309;42.682;23.372;2022-10-26T17:19:01;8.27;;;3.60;;
43710;SDS011;29309;42.682;23.372;2022-10-26T17:21:28;12.73;;;4.35;;
43710;SDS011;29309;42.682;23.372;2022-10-26T17:23:55;6.97;;;3.45;;
43710;SDS011;29309;42.682;23.372;2022-10-26T17:26:21;7.75;;;4.82;;
43710;SDS011;29309;42.682;23.372;2022-10-26T17:28:50;12.05;;;4.63;;
43710;SDS011;29309;42.682;23.372;2022-10-26T17:31:17;12.48;;;5.15;;
43710;SDS011;29309;42.682;23.372;2022-10-26T17:33:42;11.57;;;5.88;;